createdAt,value
2019-02-25T00:02:35.107Z,6.90
2019-02-25T00:06:36.031Z,6.50
2019-02-25T00:10:56.756Z,6.70
2019-02-25T00:15:17.530Z,6.60
2019-02-25T00:19:38.250Z,6.60
2019-02-25T00:23:58.968Z,6.20
2019-02-25T00:28:13.379Z,6.00
2019-02-25T00:32:28.009Z,6.30
2019-02-25T00:36:42.488Z,6.70
2019-02-25T00:40:57.108Z,6.70
2019-02-25T00:45:11.783Z,6.20
2019-02-25T00:49:12.765Z,6.20
2019-02-25T00:53:33.518Z,6.60
2019-02-25T00:57:54.265Z,5.90
2019-02-25T01:02:15.033Z,6.40
2019-02-25T01:06:15.980Z,6.40
2019-02-25T01:10:36.806Z,6.20
2019-02-25T01:14:37.857Z,6.20
2019-02-25T01:18:58.620Z,6.60
2019-02-25T01:23:19.547Z,6.00
2019-02-25T01:27:34.365Z,6.60
2019-02-25T01:31:48.091Z,6.60
2019-02-25T01:36:01.907Z,6.30
2019-02-25T01:40:16.611Z,6.40
2019-02-25T01:44:31.170Z,6.30
2019-02-25T01:48:45.945Z,5.90
2019-02-25T01:53:00.455Z,5.70
2019-02-25T01:57:15.132Z,5.90
2019-02-25T02:01:29.741Z,5.50
2019-02-25T02:05:43.789Z,5.60
2019-02-25T02:09:58.239Z,6.20
2019-02-25T02:14:12.950Z,6.10
2019-02-25T02:18:27.591Z,6.10
2019-02-25T02:22:42.264Z,6.00
2019-02-25T02:26:56.903Z,6.00
2019-02-25T02:31:11.372Z,6.00
2019-02-25T02:35:25.636Z,6.30
2019-02-25T02:39:40.040Z,6.20
2019-02-25T02:43:54.412Z,6.00
2019-02-25T02:48:08.990Z,6.10
2019-02-25T02:52:23.516Z,5.80
2019-02-25T02:56:38.099Z,5.60
2019-02-25T03:00:52.890Z,5.40
2019-02-25T03:05:07.610Z,5.10
2019-02-25T03:09:22.271Z,5.20
2019-02-25T03:13:36.774Z,5.70
2019-02-25T03:17:51.604Z,5.90
2019-02-25T03:22:06.220Z,5.90
2019-02-25T03:26:20.817Z,5.70
2019-02-25T03:30:35.268Z,5.10
2019-02-25T03:34:49.933Z,5.50
2019-02-25T03:39:04.724Z,5.70
2019-02-25T03:43:19.283Z,5.20
2019-02-25T03:47:34.000Z,5.60
2019-02-25T03:51:48.712Z,5.60
2019-02-25T03:56:02.568Z,5.50
2019-02-25T04:00:17.138Z,5.30
2019-02-25T04:04:31.468Z,5.00
2019-02-25T04:08:46.154Z,4.70
2019-02-25T04:13:00.759Z,5.10
2019-02-25T04:17:01.734Z,5.60
2019-02-25T04:21:22.684Z,5.50
2019-02-25T04:25:36.769Z,5.30
2019-02-25T04:29:51.246Z,5.20
2019-02-25T04:34:05.761Z,5.30
2019-02-25T04:38:06.671Z,5.20
2019-02-25T04:42:07.703Z,4.70
2019-02-25T04:46:28.479Z,5.40
2019-02-25T04:50:49.209Z,5.60
2019-02-25T04:55:10.805Z,5.40
2019-02-25T04:59:31.666Z,5.00
2019-02-25T05:03:52.365Z,4.80
2019-02-25T05:08:13.207Z,5.40
2019-02-25T05:12:33.986Z,5.30
2019-02-25T05:16:54.754Z,5.30
2019-02-25T05:21:15.493Z,5.50
2019-02-25T05:25:36.361Z,5.40
2019-02-25T05:29:57.093Z,5.20
2019-02-25T05:34:17.944Z,5.00
2019-02-25T05:38:39.163Z,4.50
2019-02-25T05:43:00.031Z,4.70
2019-02-25T05:47:20.853Z,4.00
2019-02-25T05:51:21.734Z,4.50
2019-02-25T05:55:42.453Z,5.10
2019-02-25T06:00:24.967Z,5.00
2019-02-25T06:04:45.717Z,4.80
2019-02-25T06:09:06.444Z,4.80
2019-02-25T06:13:07.514Z,4.50
2019-02-25T06:17:28.280Z,3.60
2019-02-25T06:21:49.010Z,2.90
2019-02-25T06:26:03.230Z,2.50
2019-02-25T06:30:17.942Z,2.70
2019-02-25T06:34:32.646Z,3.00
2019-02-25T06:38:46.697Z,3.40
2019-02-25T06:43:01.162Z,5.00
2019-02-25T06:47:15.829Z,5.40
2019-02-25T06:51:30.531Z,5.50
2019-02-25T06:55:45.113Z,5.30
2019-02-25T06:59:59.467Z,5.60
2019-02-25T07:04:33.754Z,5.60
2019-02-25T07:09:07.588Z,5.50
2019-02-25T07:18:09.837Z,5.90
2019-02-25T07:22:30.603Z,6.50
2019-02-25T07:26:49.183Z,6.90
2019-02-25T07:31:04.847Z,7.40
2019-02-25T07:35:38.542Z,7.60
2019-02-25T07:40:13.102Z,8.10
2019-02-25T07:44:31.901Z,7.80
2019-02-25T07:48:47.580Z,8.20
2019-02-25T07:53:06.126Z,8.70
2019-02-25T07:57:22.007Z,9.50
2019-02-25T08:01:56.611Z,10.30
2019-02-25T08:06:30.527Z,10.80
2019-02-25T08:10:46.317Z,11.30
2019-02-25T08:15:20.842Z,11.70
2019-02-25T08:19:54.557Z,11.90
2019-02-25T08:24:10.552Z,11.90
2019-02-25T08:28:45.088Z,12.20
2019-02-25T08:33:06.815Z,12.10
2019-02-25T08:37:22.745Z,12.40
2019-02-25T08:46:13.016Z,12.20
2019-02-25T08:50:27.719Z,12.60
2019-02-25T08:54:42.220Z,12.70
2019-02-25T08:58:56.960Z,12.80
2019-02-25T09:03:11.278Z,13.30
2019-02-25T09:07:25.682Z,13.70
2019-02-25T09:11:39.950Z,13.70
2019-02-25T09:15:54.612Z,13.70
2019-02-25T09:20:09.326Z,14.00
2019-02-25T09:24:23.707Z,14.20
2019-02-25T09:28:38.050Z,14.60
2019-02-25T09:32:52.754Z,15.20
2019-02-25T09:37:07.249Z,15.80
2019-02-25T09:41:29.675Z,16.10
2019-02-25T09:45:37.642Z,16.20
2019-02-25T09:49:51.986Z,16.50
2019-02-25T09:54:06.492Z,16.60
2019-02-25T09:58:21.159Z,16.50
2019-02-25T10:02:35.757Z,17.10
2019-02-25T10:06:50.281Z,17.10
2019-02-25T10:11:04.849Z,17.10
2019-02-25T10:15:19.402Z,17.10
2019-02-25T10:19:34.856Z,16.20
2019-02-25T10:23:49.435Z,16.60
2019-02-25T10:28:04.261Z,16.10
2019-02-25T10:32:18.704Z,17.20
2019-02-25T10:36:32.364Z,17.80
2019-02-25T10:40:47.517Z,18.40
2019-02-25T10:45:04.803Z,17.70
2019-02-25T10:49:20.074Z,17.50
2019-02-25T10:53:34.723Z,18.20
2019-02-25T10:57:49.474Z,16.80
2019-02-25T11:02:04.011Z,17.20
2019-02-25T11:06:18.651Z,17.60
2019-02-25T11:10:35.085Z,17.20
2019-02-25T11:14:38.450Z,17.90
2019-02-25T11:18:40.459Z,13.70
2019-02-25T11:22:42.401Z,13.40
2019-02-25T11:26:59.041Z,12.70
2019-02-25T11:31:15.372Z,12.70
2019-02-25T11:35:30.539Z,13.30
2019-02-25T11:39:45.089Z,13.70
2019-02-25T11:43:59.681Z,14.20
2019-02-25T11:48:13.901Z,14.20
2019-02-25T11:52:27.815Z,14.40
2019-02-25T11:56:42.380Z,14.00
2019-02-25T12:00:56.874Z,13.80
2019-02-25T12:05:11.494Z,14.10
2019-02-25T12:09:12.600Z,14.10
2019-02-25T12:13:33.366Z,15.10
2019-02-25T12:17:54.115Z,14.80
2019-02-25T12:22:14.874Z,15.50
2019-02-25T12:26:29.430Z,15.40
2019-02-25T12:30:43.933Z,15.60
2019-02-25T12:34:57.899Z,15.50
2019-02-25T12:39:12.449Z,14.90
2019-02-25T12:43:13.495Z,15.70
2019-02-25T12:47:34.435Z,16.70
2019-02-25T12:51:55.162Z,16.70
2019-02-25T12:56:15.980Z,16.90
2019-02-25T13:00:36.866Z,16.70
2019-02-25T13:04:57.636Z,16.80
2019-02-25T13:09:18.443Z,19.90
2019-02-25T13:13:39.298Z,20.10
2019-02-25T13:17:40.183Z,20.10
2019-02-25T13:22:01.486Z,19.70
2019-02-25T13:26:07.534Z,20.40
2019-02-25T13:30:18.295Z,21.50
2019-02-25T13:34:32.770Z,22.30
2019-02-25T13:38:47.463Z,22.60
2019-02-25T13:43:01.919Z,23.00
2019-02-25T13:47:16.684Z,23.30
2019-02-25T13:51:31.315Z,24.30
2019-02-25T13:55:45.823Z,25.30
2019-02-25T14:00:00.621Z,25.70
2019-02-25T14:04:15.137Z,25.60
2019-02-25T14:08:29.730Z,25.20
2019-02-25T14:12:30.835Z,24.90
2019-02-25T14:16:51.712Z,24.20
2019-02-25T14:21:14.713Z,23.60
2019-02-25T14:25:35.225Z,23.10
2019-02-25T14:29:56.068Z,22.70
2019-02-25T14:34:17.023Z,22.20
2019-02-25T14:38:37.996Z,22.50
2019-02-25T14:42:59.828Z,22.10
2019-02-25T14:47:25.803Z,22.10
2019-02-25T14:51:44.282Z,22.50
2019-02-25T14:56:05.136Z,22.20
2019-02-25T15:00:28.885Z,21.20
2019-02-25T15:04:49.303Z,22.00
2019-02-25T15:08:50.384Z,21.70
2019-02-25T15:13:11.496Z,22.00
2019-02-25T15:17:13.236Z,21.80
2019-02-25T15:21:35.355Z,21.70
2019-02-25T15:26:05.252Z,21.10
2019-02-25T15:30:38.984Z,20.90
2019-02-25T15:35:00.243Z,22.50
2019-02-25T15:39:21.099Z,22.50
2019-02-25T15:43:41.957Z,22.40
2019-02-25T15:48:03.629Z,22.10
2019-02-25T15:52:25.466Z,22.10
2019-02-25T15:56:47.352Z,21.90
2019-02-25T16:01:09.344Z,22.10
2019-02-25T16:05:32.055Z,22.10
2019-02-25T16:09:33.999Z,21.90
2019-02-25T16:13:57.827Z,21.90
2019-02-25T16:18:18.898Z,21.80
2019-02-25T16:22:20.053Z,21.70
2019-02-25T16:26:21.165Z,21.30
2019-02-25T16:30:42.918Z,21.30
2019-02-25T16:35:07.254Z,21.00
2019-02-25T16:39:28.848Z,20.40
2019-02-25T16:43:49.695Z,18.70
2019-02-25T16:48:10.805Z,18.30
2019-02-25T16:52:31.626Z,18.30
2019-02-25T16:56:32.788Z,18.70
2019-02-25T17:01:16.038Z,18.90
2019-02-25T17:05:17.161Z,19.10
2019-02-25T17:09:39.142Z,18.90
2019-02-25T17:14:01.611Z,18.60
2019-02-25T17:22:52.152Z,18.20
2019-02-25T17:27:08.940Z,17.70
2019-02-25T17:31:23.468Z,17.40
2019-02-25T17:39:54.527Z,16.90
2019-02-25T17:44:17.875Z,16.80
2019-02-25T17:48:38.671Z,16.70
2019-02-25T17:53:00.979Z,16.10
2019-02-25T17:57:22.416Z,15.90
2019-02-25T18:01:25.365Z,15.70
2019-02-25T18:05:46.340Z,15.50
2019-02-25T18:09:47.414Z,15.40
2019-02-25T18:14:09.116Z,15.30
2019-02-25T18:18:12.593Z,15.00
2019-02-25T18:22:16.692Z,14.70
2019-02-25T18:26:31.104Z,14.90
2019-02-25T18:30:46.140Z,14.40
2019-02-25T18:34:47.331Z,13.80
2019-02-25T18:39:10.467Z,14.00
2019-02-25T18:43:31.447Z,12.80
2019-02-25T18:47:32.657Z,14.00
2019-02-25T18:51:53.619Z,13.60
2019-02-25T18:56:16.313Z,13.80
2019-02-25T19:00:57.597Z,13.60
2019-02-25T19:05:18.539Z,13.30
2019-02-25T19:09:40.828Z,13.10
2019-02-25T19:13:45.778Z,12.90
2019-02-25T19:17:45.851Z,13.00
2019-02-25T19:22:08.692Z,12.90
2019-02-25T19:26:31.083Z,11.80
2019-02-25T19:30:45.871Z,12.50
2019-02-25T19:35:01.947Z,11.70
2019-02-25T19:39:19.031Z,12.00
2019-02-25T19:43:33.672Z,11.80
2019-02-25T19:47:48.082Z,12.10
2019-02-25T19:56:22.376Z,12.40
2019-02-25T20:00:44.434Z,12.30
2019-02-25T20:04:50.174Z,12.30
2019-02-25T20:09:09.763Z,12.00
2019-02-25T20:13:11.622Z,11.80
2019-02-25T20:17:32.821Z,11.40
2019-02-25T20:21:54.704Z,11.40
2019-02-25T20:26:17.716Z,11.60
2019-02-25T20:30:33.840Z,11.40
2019-02-25T20:34:54.467Z,11.30
2019-02-25T20:39:08.811Z,11.50
2019-02-25T20:43:23.602Z,11.60
2019-02-25T20:47:39.835Z,11.10
2019-02-25T20:51:54.885Z,11.00
2019-02-25T20:56:11.895Z,11.20
2019-02-25T21:00:36.907Z,10.60
2019-02-25T21:04:36.765Z,11.00
2019-02-25T21:09:00.360Z,11.00
2019-02-25T21:17:35.408Z,10.60
2019-02-25T21:21:57.141Z,10.70
2019-02-25T21:26:18.578Z,10.60
2019-02-25T21:30:32.423Z,10.60
2019-02-25T21:34:52.482Z,10.50
2019-02-25T21:39:03.664Z,9.60
2019-02-25T21:43:18.701Z,9.50
2019-02-25T21:47:35.192Z,10.00
2019-02-25T21:51:49.258Z,9.90
2019-02-25T21:56:04.896Z,10.20
2019-02-25T22:00:19.119Z,10.40
2019-02-25T22:04:33.581Z,10.00
2019-02-25T22:08:50.194Z,10.00
2019-02-25T22:13:06.686Z,9.90
2019-02-25T22:17:22.421Z,9.80
2019-02-25T22:21:36.903Z,9.70
2019-02-25T22:25:51.514Z,9.60
2019-02-25T22:30:07.380Z,9.40
2019-02-25T22:34:23.578Z,9.20
2019-02-25T22:38:39.801Z,8.80
2019-02-25T22:42:55.066Z,8.90
2019-02-25T22:47:11.633Z,9.00
2019-02-25T22:51:28.275Z,9.40
2019-02-25T22:55:44.914Z,9.20
2019-02-25T22:59:59.383Z,8.70
2019-02-25T23:04:15.565Z,8.50
2019-02-25T23:08:30.744Z,9.20
2019-02-25T23:12:45.478Z,9.30
2019-02-25T23:17:04.559Z,9.00
2019-02-25T23:21:23.545Z,8.90
2019-02-25T23:25:32.338Z,8.30
2019-02-25T23:29:48.309Z,8.60
2019-02-25T23:34:02.825Z,8.20
2019-02-25T23:38:17.173Z,8.80
2019-02-25T23:42:18.148Z,8.90
2019-02-25T23:46:40.051Z,9.00
2019-02-25T23:51:01.721Z,8.60
2019-02-25T23:55:24.993Z,8.60
2019-02-25T23:59:47.042Z,8.50
